sensor_id;sensor_type;location;lat;lon;timestamp;temperature;humidity
21799;DHT22;24973;47.178;15.316;2022-10-18T00:00:04;11.70;99.90
21799;DHT22;24973;47.178;15.316;2022-10-18T00:02:54;11.60;99.90
21799;DHT22;24973;47.178;15.316;2022-10-18T00:05:45;11.60;99.90
21799;DHT22;24973;47.178;15.316;2022-10-18T00:08:34;11.60;99.90
21799;DHT22;24973;47.178;15.316;2022-10-18T00:11:23;11.60;99.90
21799;DHT22;24973;47.178;15.316;2022-10-18T00:14:12;11.60;99.90
21799;DHT22;24973;47.178;15.316;2022-10-18T00:17:01;11.50;99.90
21799;DHT22;24973;47.178;15.316;2022-10-18T00:19:49;11.50;99.90
21799;DHT22;24973;47.178;15.316;2022-10-18T00:22:40;11.50;99.90
21799;DHT22;24973;47.178;15.316;2022-10-18T00:25:29;11.40;99.90
21799;DHT22;24973;47.178;15.316;2022-10-18T00:28:17;11.40;99.90
21799;DHT22;24973;47.178;15.316;2022-10-18T00:31:11;11.50;99.90
21799;DHT22;24973;47.178;15.316;2022-10-18T00:34:03;11.40;99.90
21799;DHT22;24973;47.178;15.316;2022-10-18T00:36:53;11.30;99.90
21799;DHT22;24973;47.178;15.316;2022-10-18T00:39:43;11.20;99.90
21799;DHT22;24973;47.178;15.316;2022-10-18T00:42:33;11.20;99.90
21799;DHT22;24973;47.178;15.316;2022-10-18T00:45:23;11.10;99.90
21799;DHT22;24973;47.178;15.316;2022-10-18T00:48:13;11.10;99.90
21799;DHT22;24973;47.178;15.316;2022-10-18T00:51:03;11.10;99.90
21799;DHT22;24973;47.178;15.316;2022-10-18T00:53:52;11.10;99.90
21799;DHT22;24973;47.178;15.316;2022-10-18T00:56:42;11.10;99.90
21799;DHT22;24973;47.178;15.316;2022-10-18T00:59:32;11.10;99.90
21799;DHT22;24973;47.178;15.316;2022-10-18T01:02:21;11.10;99.90
21799;DHT22;24973;47.178;15.316;2022-10-18T01:05:11;11.10;99.90
21799;DHT22;24973;47.178;15.316;2022-10-18T01:11:55;11.10;99.90
21799;DHT22;24973;47.178;15.316;2022-10-18T01:14:58;11.00;99.90
21799;DHT22;24973;47.178;15.316;2022-10-18T01:17:57;10.90;99.90
21799;DHT22;24973;47.178;15.316;2022-10-18T01:21:12;10.90;99.90
21799;DHT22;24973;47.178;15.316;2022-10-18T01:24:34;11.00;99.90
21799;DHT22;24973;47.178;15.316;2022-10-18T01:27:48;10.80;99.90
21799;DHT22;24973;47.178;15.316;2022-10-18T01:30:46;10.70;99.90
21799;DHT22;24973;47.178;15.316;2022-10-18T01:33:40;10.60;99.90
21799;DHT22;24973;47.178;15.316;2022-10-18T01:36:32;10.60;99.90
21799;DHT22;24973;47.178;15.316;2022-10-18T01:39:25;10.60;99.90
21799;DHT22;24973;47.178;15.316;2022-10-18T01:42:18;10.60;99.90
21799;DHT22;24973;47.178;15.316;2022-10-18T01:45:09;10.60;99.90
21799;DHT22;24973;47.178;15.316;2022-10-18T01:48:01;10.60;99.90
21799;DHT22;24973;47.178;15.316;2022-10-18T01:50:51;10.60;99.90
21799;DHT22;24973;47.178;15.316;2022-10-18T01:53:40;10.60;99.90
21799;DHT22;24973;47.178;15.316;2022-10-18T01:56:34;10.50;99.90
21799;DHT22;24973;47.178;15.316;2022-10-18T01:59:35;10.40;99.90
21799;DHT22;24973;47.178;15.316;2022-10-18T02:02:39;10.40;99.90
21799;DHT22;24973;47.178;15.316;2022-10-18T02:05:37;10.40;99.90
21799;DHT22;24973;47.178;15.316;2022-10-18T02:08:31;10.40;99.90
21799;DHT22;24973;47.178;15.316;2022-10-18T02:11:21;10.50;99.90
21799;DHT22;24973;47.178;15.316;2022-10-18T02:14:12;10.50;99.90
21799;DHT22;24973;47.178;15.316;2022-10-18T02:17:04;10.50;99.90
21799;DHT22;24973;47.178;15.316;2022-10-18T02:19:56;10.50;99.90
21799;DHT22;24973;47.178;15.316;2022-10-18T02:22:48;10.40;99.90
21799;DHT22;24973;47.178;15.316;2022-10-18T02:25:38;10.30;99.90
21799;DHT22;24973;47.178;15.316;2022-10-18T02:28:27;10.10;99.90
21799;DHT22;24973;47.178;15.316;2022-10-18T02:31:19;10.10;99.90
21799;DHT22;24973;47.178;15.316;2022-10-18T02:34:17;10.10;99.90
21799;DHT22;24973;47.178;15.316;2022-10-18T02:37:09;10.00;99.90
21799;DHT22;24973;47.178;15.316;2022-10-18T02:40:01;9.90;99.90
21799;DHT22;24973;47.178;15.316;2022-10-18T02:42:54;9.90;99.90
21799;DHT22;24973;47.178;15.316;2022-10-18T02:45:44;9.90;99.90
21799;DHT22;24973;47.178;15.316;2022-10-18T02:48:32;9.80;99.90
21799;DHT22;24973;47.178;15.316;2022-10-18T02:51:22;9.90;99.90
21799;DHT22;24973;47.178;15.316;2022-10-18T02:54:11;9.90;99.90
21799;DHT22;24973;47.178;15.316;2022-10-18T02:57:01;10.00;99.90
21799;DHT22;24973;47.178;15.316;2022-10-18T02:59:50;10.10;99.90
21799;DHT22;24973;47.178;15.316;2022-10-18T03:02:38;10.20;99.90
21799;DHT22;24973;47.178;15.316;2022-10-18T03:05:27;10.20;99.90
21799;DHT22;24973;47.178;15.316;2022-10-18T03:08:16;10.20;99.90
21799;DHT22;24973;47.178;15.316;2022-10-18T03:11:05;10.20;99.90
21799;DHT22;24973;47.178;15.316;2022-10-18T03:13:55;10.10;99.90
21799;DHT22;24973;47.178;15.316;2022-10-18T03:16:44;10.40;99.90
21799;DHT22;24973;47.178;15.316;2022-10-18T03:19:33;10.00;99.90
21799;DHT22;24973;47.178;15.316;2022-10-18T03:22:21;10.00;99.90
21799;DHT22;24973;47.178;15.316;2022-10-18T03:25:11;10.20;99.90
21799;DHT22;24973;47.178;15.316;2022-10-18T03:28:00;10.20;99.90
21799;DHT22;24973;47.178;15.316;2022-10-18T03:30:50;10.10;99.90
21799;DHT22;24973;47.178;15.316;2022-10-18T03:33:38;9.90;99.90
21799;DHT22;24973;47.178;15.316;2022-10-18T03:36:27;9.80;99.90
21799;DHT22;24973;47.178;15.316;2022-10-18T03:39:16;9.70;99.90
21799;DHT22;24973;47.178;15.316;2022-10-18T03:42:04;9.70;99.90
21799;DHT22;24973;47.178;15.316;2022-10-18T03:44:53;9.50;99.90
21799;DHT22;24973;47.178;15.316;2022-10-18T03:47:43;9.50;99.90
21799;DHT22;24973;47.178;15.316;2022-10-18T03:50:32;9.60;99.90
21799;DHT22;24973;47.178;15.316;2022-10-18T03:53:20;9.70;99.90
21799;DHT22;24973;47.178;15.316;2022-10-18T03:56:09;9.80;99.90
21799;DHT22;24973;47.178;15.316;2022-10-18T03:58:58;9.80;99.90
21799;DHT22;24973;47.178;15.316;2022-10-18T04:01:47;9.80;99.90
21799;DHT22;24973;47.178;15.316;2022-10-18T04:04:37;9.80;99.90
21799;DHT22;24973;47.178;15.316;2022-10-18T04:07:25;9.70;99.90
21799;DHT22;24973;47.178;15.316;2022-10-18T04:10:14;9.70;99.90
21799;DHT22;24973;47.178;15.316;2022-10-18T04:13:04;9.60;99.90
21799;DHT22;24973;47.178;15.316;2022-10-18T04:15:54;9.60;99.90
21799;DHT22;24973;47.178;15.316;2022-10-18T04:18:42;9.60;99.90
21799;DHT22;24973;47.178;15.316;2022-10-18T04:21:32;9.60;99.90
21799;DHT22;24973;47.178;15.316;2022-10-18T04:24:21;9.70;99.90
21799;DHT22;24973;47.178;15.316;2022-10-18T04:27:10;9.80;99.90
21799;DHT22;24973;47.178;15.316;2022-10-18T04:29:58;9.90;99.90
21799;DHT22;24973;47.178;15.316;2022-10-18T04:32:47;10.00;99.90
21799;DHT22;24973;47.178;15.316;2022-10-18T04:35:36;10.10;99.90
21799;DHT22;24973;47.178;15.316;2022-10-18T04:38:26;10.00;99.90
21799;DHT22;24973;47.178;15.316;2022-10-18T04:41:15;9.80;99.90
21799;DHT22;24973;47.178;15.316;2022-10-18T04:44:04;9.70;99.90
21799;DHT22;24973;47.178;15.316;2022-10-18T04:46:53;9.60;99.90
21799;DHT22;24973;47.178;15.316;2022-10-18T04:49:41;9.60;99.90
21799;DHT22;24973;47.178;15.316;2022-10-18T04:52:30;9.60;99.90
21799;DHT22;24973;47.178;15.316;2022-10-18T04:55:20;9.70;99.90
21799;DHT22;24973;47.178;15.316;2022-10-18T04:58:09;9.80;99.90
21799;DHT22;24973;47.178;15.316;2022-10-18T05:00:58;9.60;99.90
21799;DHT22;24973;47.178;15.316;2022-10-18T05:03:50;9.50;99.90
21799;DHT22;24973;47.178;15.316;2022-10-18T05:06:40;9.50;99.90
21799;DHT22;24973;47.178;15.316;2022-10-18T05:09:29;10.30;99.90
21799;DHT22;24973;47.178;15.316;2022-10-18T05:12:19;9.50;99.90
21799;DHT22;24973;47.178;15.316;2022-10-18T05:15:09;9.50;99.90
21799;DHT22;24973;47.178;15.316;2022-10-18T05:17:57;9.40;99.90
21799;DHT22;24973;47.178;15.316;2022-10-18T05:20:46;9.40;99.90
21799;DHT22;24973;47.178;15.316;2022-10-18T05:23:35;9.40;99.90
21799;DHT22;24973;47.178;15.316;2022-10-18T05:26:24;9.40;99.90
21799;DHT22;24973;47.178;15.316;2022-10-18T05:29:14;9.40;99.90
21799;DHT22;24973;47.178;15.316;2022-10-18T05:32:02;9.40;99.90
21799;DHT22;24973;47.178;15.316;2022-10-18T05:34:51;9.40;99.90
21799;DHT22;24973;47.178;15.316;2022-10-18T05:37:40;8.10;99.90
21799;DHT22;24973;47.178;15.316;2022-10-18T05:40:29;9.30;99.90
21799;DHT22;24973;47.178;15.316;2022-10-18T05:43:17;9.30;99.90
21799;DHT22;24973;47.178;15.316;2022-10-18T05:46:08;9.30;99.90
21799;DHT22;24973;47.178;15.316;2022-10-18T05:48:59;9.40;99.90
21799;DHT22;24973;47.178;15.316;2022-10-18T05:51:48;9.60;99.90
21799;DHT22;24973;47.178;15.316;2022-10-18T05:54:37;9.60;99.90
21799;DHT22;24973;47.178;15.316;2022-10-18T05:57:26;9.80;99.90
21799;DHT22;24973;47.178;15.316;2022-10-18T06:00:15;10.00;99.90
21799;DHT22;24973;47.178;15.316;2022-10-18T06:03:05;10.00;99.90
21799;DHT22;24973;47.178;15.316;2022-10-18T06:05:58;9.90;99.90
21799;DHT22;24973;47.178;15.316;2022-10-18T06:08:48;9.80;99.90
21799;DHT22;24973;47.178;15.316;2022-10-18T06:11:37;9.90;99.90
21799;DHT22;24973;47.178;15.316;2022-10-18T06:14:25;9.90;99.90
21799;DHT22;24973;47.178;15.316;2022-10-18T06:17:14;10.00;99.90
21799;DHT22;24973;47.178;15.316;2022-10-18T06:20:05;9.90;99.90
21799;DHT22;24973;47.178;15.316;2022-10-18T06:22:55;10.00;99.90
21799;DHT22;24973;47.178;15.316;2022-10-18T06:25:43;10.00;99.90
21799;DHT22;24973;47.178;15.316;2022-10-18T06:28:33;10.00;99.90
21799;DHT22;24973;47.178;15.316;2022-10-18T06:31:22;10.10;99.90
21799;DHT22;24973;47.178;15.316;2022-10-18T06:34:11;10.10;99.90
21799;DHT22;24973;47.178;15.316;2022-10-18T06:37:01;10.20;99.90
21799;DHT22;24973;47.178;15.316;2022-10-18T06:39:49;10.30;99.90
21799;DHT22;24973;47.178;15.316;2022-10-18T06:42:38;10.30;99.90
21799;DHT22;24973;47.178;15.316;2022-10-18T06:45:27;10.40;99.90
21799;DHT22;24973;47.178;15.316;2022-10-18T06:48:16;10.50;99.90
21799;DHT22;24973;47.178;15.316;2022-10-18T06:51:10;10.60;99.90
21799;DHT22;24973;47.178;15.316;2022-10-18T06:54:01;10.70;99.90
21799;DHT22;24973;47.178;15.316;2022-10-18T06:57:02;10.60;99.90
21799;DHT22;24973;47.178;15.316;2022-10-18T06:59:51;10.70;99.90
21799;DHT22;24973;47.178;15.316;2022-10-18T07:02:40;10.70;99.90
21799;DHT22;24973;47.178;15.316;2022-10-18T07:05:28;10.90;99.90
21799;DHT22;24973;47.178;15.316;2022-10-18T07:08:19;11.00;99.90
21799;DHT22;24973;47.178;15.316;2022-10-18T07:11:13;11.00;99.90
21799;DHT22;24973;47.178;15.316;2022-10-18T07:14:03;11.10;99.90
21799;DHT22;24973;47.178;15.316;2022-10-18T07:16:51;11.20;99.90
21799;DHT22;24973;47.178;15.316;2022-10-18T07:19:40;11.30;99.90
21799;DHT22;24973;47.178;15.316;2022-10-18T07:22:29;11.40;99.90
21799;DHT22;24973;47.178;15.316;2022-10-18T07:25:18;11.40;99.90
21799;DHT22;24973;47.178;15.316;2022-10-18T07:28:08;11.60;99.90
21799;DHT22;24973;47.178;15.316;2022-10-18T07:30:56;11.70;99.90
21799;DHT22;24973;47.178;15.316;2022-10-18T07:33:52;11.70;99.90
21799;DHT22;24973;47.178;15.316;2022-10-18T07:36:40;11.80;99.90
21799;DHT22;24973;47.178;15.316;2022-10-18T07:39:29;11.90;99.90
21799;DHT22;24973;47.178;15.316;2022-10-18T07:42:18;12.10;99.90
21799;DHT22;24973;47.178;15.316;2022-10-18T07:45:09;12.20;99.90
21799;DHT22;24973;47.178;15.316;2022-10-18T07:47:59;12.40;99.90
21799;DHT22;24973;47.178;15.316;2022-10-18T07:50:48;12.50;99.90
21799;DHT22;24973;47.178;15.316;2022-10-18T07:53:37;12.70;99.90
21799;DHT22;24973;47.178;15.316;2022-10-18T07:56:26;12.80;99.90
21799;DHT22;24973;47.178;15.316;2022-10-18T07:59:14;13.00;99.90
21799;DHT22;24973;47.178;15.316;2022-10-18T08:02:05;13.10;99.90
21799;DHT22;24973;47.178;15.316;2022-10-18T08:04:53;13.20;99.90
21799;DHT22;24973;47.178;15.316;2022-10-18T08:07:42;13.30;99.90
21799;DHT22;24973;47.178;15.316;2022-10-18T08:10:31;13.40;99.90
21799;DHT22;24973;47.178;15.316;2022-10-18T08:13:21;13.60;99.90
21799;DHT22;24973;47.178;15.316;2022-10-18T08:16:11;13.80;99.90
21799;DHT22;24973;47.178;15.316;2022-10-18T08:19:02;14.00;99.90
21799;DHT22;24973;47.178;15.316;2022-10-18T08:21:51;14.20;99.90
21799;DHT22;24973;47.178;15.316;2022-10-18T08:24:40;14.30;99.90
21799;DHT22;24973;47.178;15.316;2022-10-18T08:27:28;14.40;99.90
21799;DHT22;24973;47.178;15.316;2022-10-18T08:30:17;14.60;99.90
21799;DHT22;24973;47.178;15.316;2022-10-18T08:33:06;14.90;99.90
21799;DHT22;24973;47.178;15.316;2022-10-18T08:35:57;15.10;99.90
21799;DHT22;24973;47.178;15.316;2022-10-18T08:38:46;15.30;99.90
21799;DHT22;24973;47.178;15.316;2022-10-18T08:42:18;15.50;99.90
21799;DHT22;24973;47.178;15.316;2022-10-18T08:45:20;15.80;99.90
21799;DHT22;24973;47.178;15.316;2022-10-18T08:48:19;16.20;99.90
21799;DHT22;24973;47.178;15.316;2022-10-18T08:51:22;16.50;99.90
21799;DHT22;24973;47.178;15.316;2022-10-18T08:54:20;16.80;99.90
21799;DHT22;24973;47.178;15.316;2022-10-18T08:57:14;17.00;99.90
21799;DHT22;24973;47.178;15.316;2022-10-18T09:00:12;17.30;99.90
21799;DHT22;24973;47.178;15.316;2022-10-18T09:03:15;17.50;99.90
21799;DHT22;24973;47.178;15.316;2022-10-18T09:06:15;17.70;99.90
21799;DHT22;24973;47.178;15.316;2022-10-18T09:09:21;17.80;99.90
21799;DHT22;24973;47.178;15.316;2022-10-18T09:12:35;18.00;99.90
21799;DHT22;24973;47.178;15.316;2022-10-18T09:15:38;18.20;99.90
21799;DHT22;24973;47.178;15.316;2022-10-18T09:18:50;18.40;99.90
21799;DHT22;24973;47.178;15.316;2022-10-18T09:21:50;18.50;99.90
21799;DHT22;24973;47.178;15.316;2022-10-18T09:24:44;18.60;99.90
21799;DHT22;24973;47.178;15.316;2022-10-18T09:27:40;18.80;99.90
21799;DHT22;24973;47.178;15.316;2022-10-18T09:30:40;18.90;99.90
21799;DHT22;24973;47.178;15.316;2022-10-18T09:33:41;19.00;99.90
21799;DHT22;24973;47.178;15.316;2022-10-18T09:36:35;19.10;99.90
21799;DHT22;24973;47.178;15.316;2022-10-18T09:39:30;19.30;99.90
21799;DHT22;24973;47.178;15.316;2022-10-18T09:42:24;19.50;99.90
21799;DHT22;24973;47.178;15.316;2022-10-18T09:45:26;19.60;99.90
21799;DHT22;24973;47.178;15.316;2022-10-18T09:48:20;19.70;99.90
21799;DHT22;24973;47.178;15.316;2022-10-18T09:51:14;19.80;99.90
21799;DHT22;24973;47.178;15.316;2022-10-18T09:54:16;20.00;99.90
21799;DHT22;24973;47.178;15.316;2022-10-18T09:57:16;20.20;99.90
21799;DHT22;24973;47.178;15.316;2022-10-18T10:00:14;20.30;99.90
21799;DHT22;24973;47.178;15.316;2022-10-18T10:03:08;20.50;99.90
21799;DHT22;24973;47.178;15.316;2022-10-18T10:06:13;20.60;99.90
21799;DHT22;24973;47.178;15.316;2022-10-18T10:09:06;20.80;99.90
21799;DHT22;24973;47.178;15.316;2022-10-18T10:12:01;20.90;99.90
21799;DHT22;24973;47.178;15.316;2022-10-18T10:14:51;21.10;99.90
21799;DHT22;24973;47.178;15.316;2022-10-18T10:17:42;21.30;99.90
21799;DHT22;24973;47.178;15.316;2022-10-18T10:20:34;21.40;99.90
21799;DHT22;24973;47.178;15.316;2022-10-18T10:23:30;21.60;99.90
21799;DHT22;24973;47.178;15.316;2022-10-18T10:26:23;21.80;99.90
21799;DHT22;24973;47.178;15.316;2022-10-18T10:29:45;22.00;99.90
21799;DHT22;24973;47.178;15.316;2022-10-18T10:32:46;22.30;99.90
21799;DHT22;24973;47.178;15.316;2022-10-18T10:35:37;22.80;99.90
21799;DHT22;24973;47.178;15.316;2022-10-18T10:38:42;23.10;99.90
21799;DHT22;24973;47.178;15.316;2022-10-18T10:41:31;23.30;99.90
21799;DHT22;24973;47.178;15.316;2022-10-18T10:44:22;23.40;99.90
21799;DHT22;24973;47.178;15.316;2022-10-18T10:47:27;23.60;99.90
21799;DHT22;24973;47.178;15.316;2022-10-18T10:50:22;24.10;99.90
21799;DHT22;24973;47.178;15.316;2022-10-18T10:53:29;24.40;99.90
21799;DHT22;24973;47.178;15.316;2022-10-18T10:56:23;24.80;99.90
21799;DHT22;24973;47.178;15.316;2022-10-18T10:59:17;25.00;99.70
21799;DHT22;24973;47.178;15.316;2022-10-18T11:02:18;25.20;98.80
21799;DHT22;24973;47.178;15.316;2022-10-18T11:05:23;25.30;96.60
21799;DHT22;24973;47.178;15.316;2022-10-18T11:08:15;25.40;95.00
21799;DHT22;24973;47.178;15.316;2022-10-18T11:11:15;25.40;95.40
21799;DHT22;24973;47.178;15.316;2022-10-18T11:14:15;25.50;94.70
21799;DHT22;24973;47.178;15.316;2022-10-18T11:17:19;25.70;94.50
21799;DHT22;24973;47.178;15.316;2022-10-18T11:20:17;25.70;92.50
21799;DHT22;24973;47.178;15.316;2022-10-18T11:23:10;25.50;92.60
21799;DHT22;24973;47.178;15.316;2022-10-18T11:26:16;25.50;91.90
21799;DHT22;24973;47.178;15.316;2022-10-18T11:29:38;25.30;91.60
21799;DHT22;24973;47.178;15.316;2022-10-18T11:32:40;25.20;91.10
21799;DHT22;24973;47.178;15.316;2022-10-18T11:35:38;25.30;92.70
21799;DHT22;24973;47.178;15.316;2022-10-18T11:38:36;25.70;91.50
21799;DHT22;24973;47.178;15.316;2022-10-18T11:41:35;25.90;90.50
21799;DHT22;24973;47.178;15.316;2022-10-18T11:44:31;26.20;89.40
21799;DHT22;24973;47.178;15.316;2022-10-18T11:47:28;26.60;88.70
21799;DHT22;24973;47.178;15.316;2022-10-18T11:50:31;27.00;87.60
21799;DHT22;24973;47.178;15.316;2022-10-18T11:53:30;27.30;86.60
21799;DHT22;24973;47.178;15.316;2022-10-18T11:56:29;27.60;85.80
21799;DHT22;24973;47.178;15.316;2022-10-18T11:59:28;27.60;84.80
21799;DHT22;24973;47.178;15.316;2022-10-18T12:02:47;27.90;84.30
21799;DHT22;24973;47.178;15.316;2022-10-18T12:05:46;28.10;82.20
21799;DHT22;24973;47.178;15.316;2022-10-18T12:08:39;28.10;82.80
21799;DHT22;24973;47.178;15.316;2022-10-18T12:11:31;28.50;83.90
21799;DHT22;24973;47.178;15.316;2022-10-18T12:14:26;28.70;82.20
21799;DHT22;24973;47.178;15.316;2022-10-18T12:17:21;29.10;81.50
21799;DHT22;24973;47.178;15.316;2022-10-18T12:20:31;29.20;81.60
21799;DHT22;24973;47.178;15.316;2022-10-18T12:23:33;29.40;80.00
21799;DHT22;24973;47.178;15.316;2022-10-18T12:26:26;29.60;79.00
21799;DHT22;24973;47.178;15.316;2022-10-18T12:29:20;29.70;79.60
21799;DHT22;24973;47.178;15.316;2022-10-18T12:32:15;29.70;77.00
21799;DHT22;24973;47.178;15.316;2022-10-18T12:35:10;29.70;77.00
21799;DHT22;24973;47.178;15.316;2022-10-18T12:38:14;29.90;77.20
21799;DHT22;24973;47.178;15.316;2022-10-18T12:41:17;30.00;75.50
21799;DHT22;24973;47.178;15.316;2022-10-18T12:44:18;30.30;75.40
21799;DHT22;24973;47.178;15.316;2022-10-18T12:47:20;30.60;73.70
21799;DHT22;24973;47.178;15.316;2022-10-18T12:50:25;31.00;72.00
21799;DHT22;24973;47.178;15.316;2022-10-18T12:53:24;31.30;71.20
21799;DHT22;24973;47.178;15.316;2022-10-18T12:56:37;31.60;69.60
21799;DHT22;24973;47.178;15.316;2022-10-18T12:59:49;31.90;67.90
21799;DHT22;24973;47.178;15.316;2022-10-18T13:02:38;31.80;67.00
21799;DHT22;24973;47.178;15.316;2022-10-18T13:05:54;31.80;66.70
21799;DHT22;24973;47.178;15.316;2022-10-18T13:08:45;31.80;66.40
21799;DHT22;24973;47.178;15.316;2022-10-18T13:11:38;31.70;65.50
21799;DHT22;24973;47.178;15.316;2022-10-18T13:14:47;31.70;64.30
21799;DHT22;24973;47.178;15.316;2022-10-18T13:17:49;31.70;64.90
21799;DHT22;24973;47.178;15.316;2022-10-18T13:20:45;31.70;64.80
21799;DHT22;24973;47.178;15.316;2022-10-18T13:23:43;31.80;64.70
21799;DHT22;24973;47.178;15.316;2022-10-18T13:27:06;32.00;63.50
21799;DHT22;24973;47.178;15.316;2022-10-18T13:30:37;32.10;63.10
21799;DHT22;24973;47.178;15.316;2022-10-18T13:33:31;32.30;61.50
21799;DHT22;24973;47.178;15.316;2022-10-18T13:36:23;32.30;61.50
21799;DHT22;24973;47.178;15.316;2022-10-18T13:39:18;32.30;60.60
21799;DHT22;24973;47.178;15.316;2022-10-18T13:42:30;33.10;61.10
21799;DHT22;24973;47.178;15.316;2022-10-18T13:45:52;32.00;60.00
21799;DHT22;24973;47.178;15.316;2022-10-18T13:48:49;31.90;60.90
21799;DHT22;24973;47.178;15.316;2022-10-18T13:51:51;31.90;60.60
21799;DHT22;24973;47.178;15.316;2022-10-18T13:54:59;31.80;60.60
21799;DHT22;24973;47.178;15.316;2022-10-18T13:58:05;31.60;60.70
21799;DHT22;24973;47.178;15.316;2022-10-18T14:01:10;31.50;61.20
21799;DHT22;24973;47.178;15.316;2022-10-18T14:07:57;31.70;60.90
21799;DHT22;24973;47.178;15.316;2022-10-18T14:10:55;31.70;60.60
21799;DHT22;24973;47.178;15.316;2022-10-18T14:13:53;31.70;60.80
21799;DHT22;24973;47.178;15.316;2022-10-18T14:16:47;31.70;61.00
21799;DHT22;24973;47.178;15.316;2022-10-18T14:19:39;31.40;61.60
21799;DHT22;24973;47.178;15.316;2022-10-18T14:22:35;31.40;61.90
21799;DHT22;24973;47.178;15.316;2022-10-18T14:25:29;31.40;61.90
21799;DHT22;24973;47.178;15.316;2022-10-18T14:28:20;31.40;63.00
21799;DHT22;24973;47.178;15.316;2022-10-18T14:31:17;31.40;62.80
21799;DHT22;24973;47.178;15.316;2022-10-18T14:34:11;31.40;63.80
21799;DHT22;24973;47.178;15.316;2022-10-18T14:37:02;31.40;62.90
21799;DHT22;24973;47.178;15.316;2022-10-18T14:39:51;31.20;63.40
21799;DHT22;24973;47.178;15.316;2022-10-18T14:42:47;31.00;63.40
21799;DHT22;24973;47.178;15.316;2022-10-18T14:45:36;30.80;65.10
21799;DHT22;24973;47.178;15.316;2022-10-18T14:48:26;30.60;65.80
21799;DHT22;24973;47.178;15.316;2022-10-18T14:51:15;30.50;66.10
21799;DHT22;24973;47.178;15.316;2022-10-18T14:54:05;30.40;66.00
21799;DHT22;24973;47.178;15.316;2022-10-18T14:56:55;30.20;67.50
21799;DHT22;24973;47.178;15.316;2022-10-18T14:59:45;29.80;68.30
21799;DHT22;24973;47.178;15.316;2022-10-18T15:02:38;29.50;69.30
21799;DHT22;24973;47.178;15.316;2022-10-18T15:05:28;29.00;70.60
21799;DHT22;24973;47.178;15.316;2022-10-18T15:08:17;27.90;71.80
21799;DHT22;24973;47.178;15.316;2022-10-18T15:11:07;26.60;75.20
21799;DHT22;24973;47.178;15.316;2022-10-18T15:13:59;25.40;78.60
21799;DHT22;24973;47.178;15.316;2022-10-18T15:16:57;24.40;83.30
21799;DHT22;24973;47.178;15.316;2022-10-18T15:19:55;23.40;87.50
21799;DHT22;24973;47.178;15.316;2022-10-18T15:22:46;22.50;91.10
21799;DHT22;24973;47.178;15.316;2022-10-18T15:25:35;21.60;93.60
21799;DHT22;24973;47.178;15.316;2022-10-18T15:28:27;21.10;95.70
21799;DHT22;24973;47.178;15.316;2022-10-18T15:31:23;20.70;98.10
21799;DHT22;24973;47.178;15.316;2022-10-18T15:34:17;20.30;99.90
21799;DHT22;24973;47.178;15.316;2022-10-18T15:37:16;19.90;99.90
21799;DHT22;24973;47.178;15.316;2022-10-18T15:40:31;19.60;99.90
21799;DHT22;24973;47.178;15.316;2022-10-18T15:43:34;19.30;99.90
21799;DHT22;24973;47.178;15.316;2022-10-18T15:46:30;19.10;99.90
21799;DHT22;24973;47.178;15.316;2022-10-18T15:49:50;18.90;99.90
21799;DHT22;24973;47.178;15.316;2022-10-18T15:52:42;18.90;99.90
21799;DHT22;24973;47.178;15.316;2022-10-18T15:55:57;18.80;99.90
21799;DHT22;24973;47.178;15.316;2022-10-18T15:58:48;18.70;99.90
21799;DHT22;24973;47.178;15.316;2022-10-18T16:01:41;18.40;99.90
21799;DHT22;24973;47.178;15.316;2022-10-18T16:04:31;18.10;99.90
21799;DHT22;24973;47.178;15.316;2022-10-18T16:07:20;17.90;99.90
21799;DHT22;24973;47.178;15.316;2022-10-18T16:10:12;17.70;99.90
21799;DHT22;24973;47.178;15.316;2022-10-18T16:13:02;17.50;99.90
21799;DHT22;24973;47.178;15.316;2022-10-18T16:15:51;17.20;99.90
21799;DHT22;24973;47.178;15.316;2022-10-18T16:18:41;17.10;99.90
21799;DHT22;24973;47.178;15.316;2022-10-18T16:21:32;17.10;99.90
21799;DHT22;24973;47.178;15.316;2022-10-18T16:24:21;17.10;99.90
21799;DHT22;24973;47.178;15.316;2022-10-18T16:27:10;17.20;99.90
21799;DHT22;24973;47.178;15.316;2022-10-18T16:30:00;17.10;99.90
21799;DHT22;24973;47.178;15.316;2022-10-18T16:32:51;17.20;99.90
21799;DHT22;24973;47.178;15.316;2022-10-18T16:35:39;17.00;99.90
21799;DHT22;24973;47.178;15.316;2022-10-18T16:38:30;16.90;99.90
21799;DHT22;24973;47.178;15.316;2022-10-18T16:41:21;16.80;99.90
21799;DHT22;24973;47.178;15.316;2022-10-18T16:44:11;16.80;99.90
21799;DHT22;24973;47.178;15.316;2022-10-18T16:47:01;16.80;99.90
21799;DHT22;24973;47.178;15.316;2022-10-18T16:49:50;16.70;99.90
21799;DHT22;24973;47.178;15.316;2022-10-18T16:52:39;16.70;99.90
21799;DHT22;24973;47.178;15.316;2022-10-18T16:55:28;16.70;99.90
21799;DHT22;24973;47.178;15.316;2022-10-18T16:58:17;16.70;99.90
21799;DHT22;24973;47.178;15.316;2022-10-18T17:01:06;16.70;99.90
21799;DHT22;24973;47.178;15.316;2022-10-18T17:03:59;16.70;99.90
21799;DHT22;24973;47.178;15.316;2022-10-18T17:06:48;16.70;99.90
21799;DHT22;24973;47.178;15.316;2022-10-18T17:09:36;16.70;99.90
21799;DHT22;24973;47.178;15.316;2022-10-18T17:12:25;16.70;99.90
21799;DHT22;24973;47.178;15.316;2022-10-18T17:15:14;16.60;99.90
21799;DHT22;24973;47.178;15.316;2022-10-18T17:18:03;16.40;99.90
21799;DHT22;24973;47.178;15.316;2022-10-18T17:20:53;16.20;99.90
21799;DHT22;24973;47.178;15.316;2022-10-18T17:23:42;16.20;99.90
21799;DHT22;24973;47.178;15.316;2022-10-18T17:26:31;16.20;99.90
21799;DHT22;24973;47.178;15.316;2022-10-18T17:29:20;16.20;99.90
21799;DHT22;24973;47.178;15.316;2022-10-18T17:32:09;16.20;99.90
21799;DHT22;24973;47.178;15.316;2022-10-18T17:34:58;16.20;99.90
21799;DHT22;24973;47.178;15.316;2022-10-18T17:37:49;16.20;99.90
21799;DHT22;24973;47.178;15.316;2022-10-18T17:40:39;16.10;99.90
21799;DHT22;24973;47.178;15.316;2022-10-18T17:43:28;16.00;99.90
21799;DHT22;24973;47.178;15.316;2022-10-18T17:46:17;15.90;99.90
21799;DHT22;24973;47.178;15.316;2022-10-18T17:49:06;15.80;99.90
21799;DHT22;24973;47.178;15.316;2022-10-18T17:51:55;15.80;99.90
21799;DHT22;24973;47.178;15.316;2022-10-18T17:54:45;15.70;99.90
21799;DHT22;24973;47.178;15.316;2022-10-18T17:57:33;15.60;99.90
21799;DHT22;24973;47.178;15.316;2022-10-18T18:00:22;15.50;99.90
21799;DHT22;24973;47.178;15.316;2022-10-18T18:03:11;15.40;99.90
21799;DHT22;24973;47.178;15.316;2022-10-18T18:06:00;15.20;99.90
21799;DHT22;24973;47.178;15.316;2022-10-18T18:09:00;15.10;99.90